Time;durP1;ratioP1;P1;durP2;ratioP2;P2;SDS_P1;SDS_P2;PMS_P1;PMS_P2;Temp;Humidity;BMP_temperature;BMP_pressure;BME280_temperature;BME280_humidity;BME280_pressure;Samples;Min_cycle;Max_cycle;Signal;HPM_P1;HPM_P2
2023/04/15 00:00:14;;;;;;;12.80;7.80;;;;;;;;;;5009062;28;20240;-79
2023/04/15 00:02:41;;;;;;;13.37;7.43;;;;;;;;;;5001004;28;20647;-79
2023/04/15 00:05:07;;;;;;;14.30;9.20;;;;;;;;;;5023728;28;20183;-79
2023/04/15 00:07:33;;;;;;;56.47;28.93;;;;;;;;;;5011495;28;20229;-79
2023/04/15 00:10:00;;;;;;;55.43;29.57;;;;;;;;;;5017352;28;20229;-79
2023/04/15 00:12:27;;;;;;;36.83;20.63;;;;;;;;;;5014776;28;20479;-79
2023/04/15 00:14:53;;;;;;;22.47;13.70;;;;;;;;;;5017002;28;20726;-79
2023/04/15 00:17:20;;;;;;;19.57;11.03;;;;;;;;;;5014077;28;20199;-79
2023/04/15 00:19:46;;;;;;;22.00;10.93;;;;;;;;;;5030526;28;20198;-79
2023/04/15 00:22:12;;;;;;;18.23;10.00;;;;;;;;;;5016634;28;20211;-79
2023/04/15 00:24:39;;;;;;;15.20;8.73;;;;;;;;;;5044087;28;20206;-79
2023/04/15 00:27:05;;;;;;;11.43;6.47;;;;;;;;;;5018531;28;20215;-79
2023/04/15 00:29:31;;;;;;;11.17;6.57;;;;;;;;;;5019599;28;20203;-79
2023/04/15 00:31:58;;;;;;;9.03;5.93;;;;;;;;;;5018381;28;20651;-79
2023/04/15 00:34:24;;;;;;;10.47;5.93;;;;;;;;;;5017945;28;20225;-79
2023/04/15 00:36:51;;;;;;;10.60;6.60;;;;;;;;;;5018680;28;20196;-79
2023/04/15 00:39:17;;;;;;;9.67;7.10;;;;;;;;;;5016364;28;20183;-79
2023/04/15 00:41:44;;;;;;;10.80;6.40;;;;;;;;;;5019018;28;20190;-79
2023/04/15 00:44:11;;;;;;;7.23;5.47;;;;;;;;;;5001947;28;20187;-79
2023/04/15 00:46:38;;;;;;;7.40;5.40;;;;;;;;;;5019264;28;20254;-79
2023/04/15 00:49:05;;;;;;;9.17;5.87;;;;;;;;;;5017622;28;20168;-79
2023/04/15 00:51:34;;;;;;;11.73;6.83;;;;;;;;;;5017696;28;20210;-79
2023/04/15 00:54:02;;;;;;;43.37;21.73;;;;;;;;;;5018652;28;20183;-79
2023/04/15 00:56:28;;;;;;;28.53;14.43;;;;;;;;;;5017214;28;20262;-79
2023/04/15 00:58:55;;;;;;;15.77;9.40;;;;;;;;;;5018982;28;20789;-79
2023/04/15 01:01:23;;;;;;;12.50;7.93;;;;;;;;;;5001701;28;20579;-79
2023/04/15 01:03:50;;;;;;;20.57;11.37;;;;;;;;;;5016785;28;20663;-79
2023/04/15 01:06:16;;;;;;;15.60;8.57;;;;;;;;;;5017421;28;20214;-79
2023/04/15 01:08:44;;;;;;;13.50;8.27;;;;;;;;;;5000363;28;20197;-79
2023/04/15 01:11:12;;;;;;;15.50;8.93;;;;;;;;;;5016649;28;20203;-79
2023/04/15 01:13:39;;;;;;;13.20;7.10;;;;;;;;;;5015869;28;20206;-79
2023/04/15 01:16:06;;;;;;;11.53;7.87;;;;;;;;;;5016264;28;20296;-79
2023/04/15 01:18:32;;;;;;;12.97;6.90;;;;;;;;;;5016342;28;20317;-79
2023/04/15 01:21:01;;;;;;;9.37;6.20;;;;;;;;;;5017530;28;20191;-79
2023/04/15 01:23:27;;;;;;;9.17;6.03;;;;;;;;;;5016082;28;20179;-79
2023/04/15 01:25:54;;;;;;;10.23;5.90;;;;;;;;;;4999553;28;20183;-79
2023/04/15 01:28:20;;;;;;;11.07;6.43;;;;;;;;;;5016130;28;20312;-79
2023/04/15 01:30:46;;;;;;;7.90;5.07;;;;;;;;;;5019519;28;20213;-79
2023/04/15 01:33:14;;;;;;;7.80;5.63;;;;;;;;;;5005570;28;20206;-79
2023/04/15 01:36:00;;;;;;;8.40;5.73;;;;;;;;;;5017841;28;20272;-79
2023/04/15 01:38:27;;;;;;;7.90;5.40;;;;;;;;;;5014786;28;20199;-79
2023/04/15 01:40:53;;;;;;;7.90;5.60;;;;;;;;;;5017350;28;20552;-79
2023/04/15 01:43:21;;;;;;;8.60;6.30;;;;;;;;;;5014756;28;20179;-79
2023/04/15 01:45:48;;;;;;;9.37;5.97;;;;;;;;;;5015465;28;20197;-79
2023/04/15 01:48:15;;;;;;;8.50;5.67;;;;;;;;;;5016500;28;20203;-79
2023/04/15 01:50:43;;;;;;;11.07;6.20;;;;;;;;;;5048327;28;20213;-79
2023/04/15 01:53:10;;;;;;;8.23;5.60;;;;;;;;;;5014103;28;20191;-79
2023/04/15 01:55:38;;;;;;;8.57;5.60;;;;;;;;;;5017075;28;20681;-79
2023/04/15 01:58:05;;;;;;;8.53;5.53;;;;;;;;;;4998442;28;20207;-79
2023/04/15 02:00:34;;;;;;;8.43;5.30;;;;;;;;;;5014397;28;20183;-79
2023/04/15 02:03:01;;;;;;;9.03;5.13;;;;;;;;;;4999624;28;20192;-79
2023/04/15 02:05:29;;;;;;;7.53;5.60;;;;;;;;;;5028089;28;20576;-79
2023/04/15 02:07:57;;;;;;;8.33;5.20;;;;;;;;;;4996641;28;20215;-79
2023/04/15 02:10:24;;;;;;;9.00;5.63;;;;;;;;;;4996967;28;20200;-79
2023/04/15 02:12:52;;;;;;;9.67;6.00;;;;;;;;;;5027080;28;20701;-79
2023/04/15 02:15:20;;;;;;;7.77;5.83;;;;;;;;;;5027760;28;20273;-78
2023/04/15 02:17:51;;;;;;;7.30;4.90;;;;;;;;;;5027423;28;20211;-79
2023/04/15 02:20:20;;;;;;;8.40;5.40;;;;;;;;;;5027419;28;20199;-79
2023/04/15 02:22:47;;;;;;;7.63;5.67;;;;;;;;;;5026600;28;20183;-79
2023/04/15 02:25:16;;;;;;;8.20;5.70;;;;;;;;;;5016110;28;20183;-79
2023/04/15 02:27:43;;;;;;;7.30;5.57;;;;;;;;;;5016059;28;20199;-79
2023/04/15 02:30:10;;;;;;;7.73;5.63;;;;;;;;;;5047655;28;20209;-78
2023/04/15 02:32:38;;;;;;;7.37;5.40;;;;;;;;;;5013802;28;20195;-79
2023/04/15 02:35:06;;;;;;;8.30;5.20;;;;;;;;;;5013954;28;20209;-79
2023/04/15 02:37:39;;;;;;;7.30;5.17;;;;;;;;;;5015476;28;20217;-79
2023/04/15 02:40:11;;;;;;;7.70;5.00;;;;;;;;;;5046487;28;20184;-79
2023/04/15 02:42:39;;;;;;;8.07;5.13;;;;;;;;;;5014146;28;20195;-79
2023/04/15 02:45:07;;;;;;;9.33;5.53;;;;;;;;;;5018077;28;20270;-79
2023/04/15 02:47:36;;;;;;;7.80;5.03;;;;;;;;;;5020242;28;20734;-79
2023/04/15 02:50:06;;;;;;;7.40;4.90;;;;;;;;;;5003405;28;20277;-79
2023/04/15 02:52:34;;;;;;;7.47;4.57;;;;;;;;;;5026460;28;20270;-79
2023/04/15 02:55:03;;;;;;;6.63;4.73;;;;;;;;;;5037072;28;20302;-79
2023/04/15 02:57:31;;;;;;;8.50;5.63;;;;;;;;;;5020524;28;20749;-79
2023/04/15 03:00:03;;;;;;;10.00;6.10;;;;;;;;;;5028040;28;20258;-79
2023/04/15 03:02:35;;;;;;;9.33;6.07;;;;;;;;;;5023028;28;20242;-79
2023/04/15 03:05:03;;;;;;;7.60;5.23;;;;;;;;;;5019507;28;20259;-78
2023/04/15 03:07:30;;;;;;;8.53;6.47;;;;;;;;;;5020516;28;20663;-79
2023/04/15 03:09:58;;;;;;;6.93;4.93;;;;;;;;;;5036180;28;20626;-79
2023/04/15 03:12:26;;;;;;;9.10;5.37;;;;;;;;;;5003547;28;20285;-79
2023/04/15 03:14:56;;;;;;;7.17;5.40;;;;;;;;;;5020381;28;20274;-79
2023/04/15 03:17:32;;;;;;;7.87;5.73;;;;;;;;;;5019759;28;20360;-79
2023/04/15 03:20:01;;;;;;;7.07;5.37;;;;;;;;;;5002740;28;20270;-79
2023/04/15 03:22:29;;;;;;;9.00;5.27;;;;;;;;;;5018870;28;20622;-78
2023/04/15 03:24:57;;;;;;;7.20;5.17;;;;;;;;;;5019728;28;20278;-79
2023/04/15 03:27:25;;;;;;;9.47;5.50;;;;;;;;;;5016927;28;20642;-78
2023/04/15 03:29:55;;;;;;;7.07;5.10;;;;;;;;;;5015404;28;20205;-78
2023/04/15 03:32:26;;;;;;;7.73;5.10;;;;;;;;;;5000415;28;20219;-79
2023/04/15 03:34:53;;;;;;;6.37;4.70;;;;;;;;;;5019520;28;20273;-79
2023/04/15 03:37:20;;;;;;;7.50;4.57;;;;;;;;;;5020617;28;20278;-79
2023/04/15 03:39:48;;;;;;;7.27;5.30;;;;;;;;;;5019892;28;20270;-79
2023/04/15 03:42:15;;;;;;;6.00;5.23;;;;;;;;;;5020979;28;20273;-78
2023/04/15 03:44:42;;;;;;;7.97;5.07;;;;;;;;;;5018296;28;20263;-79
2023/04/15 03:47:10;;;;;;;6.17;5.00;;;;;;;;;;5018227;28;20274;-79
2023/04/15 03:49:37;;;;;;;8.67;4.93;;;;;;;;;;5032830;28;20273;-79
2023/04/15 03:52:05;;;;;;;6.30;4.77;;;;;;;;;;5038084;28;20220;-78
2023/04/15 03:54:32;;;;;;;5.70;3.90;;;;;;;;;;5025702;28;20255;-79
2023/04/15 03:57:00;;;;;;;6.07;4.23;;;;;;;;;;5020219;28;20289;-79
2023/04/15 03:59:27;;;;;;;6.97;4.83;;;;;;;;;;5019715;28;20274;-78
2023/04/15 04:01:55;;;;;;;9.47;5.30;;;;;;;;;;5023641;28;20274;-78
2023/04/15 04:04:22;;;;;;;6.43;5.00;;;;;;;;;;5017186;28;20706;-79
2023/04/15 04:06:50;;;;;;;9.33;5.70;;;;;;;;;;5017367;28;20309;-79
2023/04/15 04:09:17;;;;;;;7.05;5.38;;;;;;;;;;5018376;28;20973;-79
2023/04/15 04:11:44;;;;;;;6.13;4.80;;;;;;;;;;4999972;28;20225;-79
2023/04/15 04:14:12;;;;;;;8.20;5.60;;;;;;;;;;5045149;28;20266;-79
2023/04/15 04:16:39;;;;;;;8.60;5.70;;;;;;;;;;5016795;28;20290;-79
2023/04/15 04:19:06;;;;;;;6.37;4.90;;;;;;;;;;5018296;28;20733;-79
2023/04/15 04:21:35;;;;;;;6.40;4.90;;;;;;;;;;5016573;28;20246;-79
2023/04/15 04:24:02;;;;;;;5.30;4.30;;;;;;;;;;5017841;28;20616;-79
2023/04/15 04:26:30;;;;;;;5.57;4.47;;;;;;;;;;5018235;28;20251;-79
2023/04/15 04:28:57;;;;;;;5.20;4.47;;;;;;;;;;5049217;28;20605;-78
2023/04/15 04:31:24;;;;;;;7.13;5.07;;;;;;;;;;5017923;28;20211;-78
2023/04/15 04:33:51;;;;;;;7.17;4.90;;;;;;;;;;5013362;28;20183;-79
2023/04/15 04:36:19;;;;;;;7.13;5.30;;;;;;;;;;5015968;28;20729;-78
2023/04/15 04:38:46;;;;;;;6.60;5.10;;;;;;;;;;5016799;28;20633;-79
2023/04/15 04:41:14;;;;;;;6.33;4.97;;;;;;;;;;5017792;28;20262;-79
2023/04/15 04:43:41;;;;;;;8.50;5.63;;;;;;;;;;5016725;28;20270;-78
2023/04/15 04:46:09;;;;;;;7.00;5.20;;;;;;;;;;5018064;28;20286;-78
2023/04/15 04:48:36;;;;;;;7.47;5.67;;;;;;;;;;5017810;28;20217;-78
2023/04/15 04:51:03;;;;;;;8.67;5.60;;;;;;;;;;5015761;28;20186;-78
2023/04/15 04:53:31;;;;;;;8.93;5.73;;;;;;;;;;5022018;28;20632;-79
2023/04/15 04:55:58;;;;;;;8.70;5.07;;;;;;;;;;5017263;28;20266;-79
2023/04/15 04:58:26;;;;;;;6.67;4.53;;;;;;;;;;5013813;28;20649;-79
2023/04/15 05:00:53;;;;;;;6.63;4.93;;;;;;;;;;5016943;28;20235;-78
2023/04/15 05:03:21;;;;;;;9.07;5.37;;;;;;;;;;5015745;28;20283;-78
2023/04/15 05:05:48;;;;;;;7.03;5.30;;;;;;;;;;5014897;28;20243;-78
2023/04/15 05:08:15;;;;;;;6.57;4.80;;;;;;;;;;5015971;28;20301;-79
2023/04/15 05:10:43;;;;;;;6.97;5.50;;;;;;;;;;5015725;28;20189;-78
2023/04/15 05:13:11;;;;;;;6.20;4.80;;;;;;;;;;5018024;28;20704;-79
2023/04/15 05:15:40;;;;;;;8.37;5.30;;;;;;;;;;5017399;28;20171;-78
2023/04/15 05:18:07;;;;;;;6.57;5.00;;;;;;;;;;5034614;28;20286;-78
2023/04/15 05:20:34;;;;;;;5.77;5.00;;;;;;;;;;5019742;28;20258;-79
2023/04/15 05:23:02;;;;;;;8.27;5.70;;;;;;;;;;5019383;28;20282;-79
2023/04/15 05:25:29;;;;;;;7.77;5.07;;;;;;;;;;5001774;28;20622;-79
2023/04/15 05:27:57;;;;;;;5.80;4.50;;;;;;;;;;5018895;28;20203;-78
2023/04/15 05:30:24;;;;;;;6.03;4.97;;;;;;;;;;5017619;28;20187;-79
2023/04/15 05:32:51;;;;;;;5.07;4.43;;;;;;;;;;5016749;28;20690;-78
2023/04/15 05:35:19;;;;;;;6.77;4.23;;;;;;;;;;5017143;28;20185;-79
2023/04/15 05:37:46;;;;;;;5.70;4.50;;;;;;;;;;5018147;28;20626;-78
2023/04/15 05:40:14;;;;;;;7.00;4.40;;;;;;;;;;5018430;28;20547;-79
2023/04/15 05:42:41;;;;;;;5.70;4.30;;;;;;;;;;5016802;28;20180;-79
2023/04/15 05:45:09;;;;;;;5.80;4.47;;;;;;;;;;5016652;28;20194;-79
2023/04/15 05:47:36;;;;;;;6.57;5.20;;;;;;;;;;5013242;28;20203;-79
2023/04/15 05:50:04;;;;;;;6.27;4.83;;;;;;;;;;5049902;28;20278;-78
2023/04/15 05:52:31;;;;;;;9.97;6.00;;;;;;;;;;5017682;28;20698;-78
2023/04/15 05:54:59;;;;;;;7.70;5.40;;;;;;;;;;5018354;28;20262;-79
2023/04/15 05:57:26;;;;;;;6.30;5.07;;;;;;;;;;5011459;28;20547;-79
2023/04/15 05:59:56;;;;;;;10.63;5.10;;;;;;;;;;5018269;28;20175;-79
2023/04/15 06:02:23;;;;;;;8.50;5.20;;;;;;;;;;5020339;28;20537;-79
2023/04/15 06:04:51;;;;;;;7.80;4.67;;;;;;;;;;5057627;28;20716;-79
2023/04/15 06:07:18;;;;;;;9.30;5.83;;;;;;;;;;5024047;28;20302;-79
2023/04/15 06:09:46;;;;;;;8.17;5.10;;;;;;;;;;5017168;28;20191;-78
2023/04/15 06:12:13;;;;;;;9.07;5.27;;;;;;;;;;5015417;28;20705;-79
2023/04/15 06:14:40;;;;;;;6.50;5.03;;;;;;;;;;5015891;28;20641;-78
2023/04/15 06:17:08;;;;;;;6.43;4.77;;;;;;;;;;5019296;28;20639;-78
2023/04/15 06:19:35;;;;;;;9.57;5.40;;;;;;;;;;5016702;28;20175;-79
2023/04/15 06:22:03;;;;;;;8.77;5.37;;;;;;;;;;5022697;28;20195;-78
2023/04/15 06:24:31;;;;;;;7.33;5.23;;;;;;;;;;5012772;28;20197;-79
2023/04/15 06:27:01;;;;;;;12.13;5.90;;;;;;;;;;5023718;28;20218;-77
2023/04/15 06:29:28;;;;;;;6.40;4.97;;;;;;;;;;5016377;28;20718;-82
2023/04/15 06:31:55;;;;;;;8.93;5.47;;;;;;;;;;5027366;28;20193;-80
2023/04/15 06:34:23;;;;;;;8.93;5.63;;;;;;;;;;5014597;28;20187;-79
2023/04/15 06:36:50;;;;;;;8.40;5.90;;;;;;;;;;5012537;28;20207;-79
2023/04/15 06:39:17;;;;;;;9.97;6.70;;;;;;;;;;5013419;28;20175;-80
2023/04/15 06:41:45;;;;;;;8.83;6.07;;;;;;;;;;4995990;28;20193;-78
2023/04/15 06:44:13;;;;;;;7.17;5.30;;;;;;;;;;5016635;28;20184;-78
2023/04/15 06:46:40;;;;;;;6.77;5.50;;;;;;;;;;5003214;28;20207;-78
2023/04/15 06:49:07;;;;;;;8.93;6.60;;;;;;;;;;5012113;28;20183;-78
2023/04/15 06:51:35;;;;;;;9.00;6.03;;;;;;;;;;5013365;28;20187;-78
2023/04/15 06:54:04;;;;;;;8.03;5.80;;;;;;;;;;5015874;28;20217;-78
2023/04/15 06:56:32;;;;;;;8.73;6.47;;;;;;;;;;5012785;28;20211;-77
2023/04/15 06:59:00;;;;;;;7.63;6.00;;;;;;;;;;5012840;28;20187;-78
2023/04/15 07:01:27;;;;;;;10.23;5.83;;;;;;;;;;5015426;28;20595;-79
2023/04/15 07:03:55;;;;;;;8.40;5.77;;;;;;;;;;5012896;28;20193;-79
2023/04/15 07:06:22;;;;;;;8.43;6.33;;;;;;;;;;5011296;28;20199;-81
2023/04/15 07:08:49;;;;;;;9.00;5.73;;;;;;;;;;5011596;28;20187;-80
2023/04/15 07:11:17;;;;;;;8.93;5.90;;;;;;;;;;5009656;28;20210;-78
2023/04/15 07:13:44;;;;;;;5.83;5.10;;;;;;;;;;5007064;28;20622;-79
2023/04/15 07:16:12;;;;;;;5.80;4.80;;;;;;;;;;5011876;28;20179;-79
2023/04/15 07:18:39;;;;;;;6.80;5.63;;;;;;;;;;5010812;28;20179;-79
2023/04/15 07:21:07;;;;;;;8.30;5.30;;;;;;;;;;4993227;28;20180;-79
2023/04/15 07:23:34;;;;;;;7.97;5.80;;;;;;;;;;5020313;28;20186;-79
2023/04/15 07:26:02;;;;;;;6.90;5.20;;;;;;;;;;5012904;28;20183;-79
2023/04/15 07:28:30;;;;;;;7.73;5.67;;;;;;;;;;5012621;28;20211;-79
2023/04/15 07:30:57;;;;;;;6.60;5.17;;;;;;;;;;5013103;28;20190;-79
2023/04/15 07:33:25;;;;;;;7.17;5.33;;;;;;;;;;5012182;28;20713;-79
2023/04/15 07:35:52;;;;;;;7.87;5.70;;;;;;;;;;5012211;28;20187;-79
2023/04/15 07:38:19;;;;;;;13.30;5.47;;;;;;;;;;5044200;28;20690;-79
2023/04/15 07:40:47;;;;;;;7.07;5.30;;;;;;;;;;5011739;28;20227;-79
2023/04/15 07:43:14;;;;;;;7.57;5.37;;;;;;;;;;5012630;28;20777;-79
2023/04/15 07:45:42;;;;;;;7.60;5.20;;;;;;;;;;5023361;28;20202;-79
2023/04/15 07:48:09;;;;;;;8.73;6.00;;;;;;;;;;5010922;28;20209;-79
2023/04/15 07:50:37;;;;;;;5.67;5.07;;;;;;;;;;5012796;28;20193;-79
2023/04/15 07:53:05;;;;;;;6.07;4.77;;;;;;;;;;5012564;28;20211;-79
2023/04/15 07:55:32;;;;;;;5.17;4.30;;;;;;;;;;5012544;28;20186;-79
2023/04/15 07:58:00;;;;;;;4.73;4.20;;;;;;;;;;5009600;28;20671;-79
2023/04/15 08:00:27;;;;;;;5.47;4.47;;;;;;;;;;5012538;28;20175;-79
2023/04/15 08:02:58;;;;;;;8.37;4.67;;;;;;;;;;5012677;28;20186;-79
2023/04/15 08:05:25;;;;;;;4.70;4.10;;;;;;;;;;5021854;28;20186;-79
2023/04/15 08:07:52;;;;;;;5.33;4.83;;;;;;;;;;5017043;28;20599;-79
2023/04/15 08:10:20;;;;;;;6.03;4.70;;;;;;;;;;5021133;28;20190;-79
2023/04/15 08:12:48;;;;;;;6.50;5.20;;;;;;;;;;5010300;28;20186;-79
2023/04/15 08:15:15;;;;;;;5.20;4.70;;;;;;;;;;5011982;28;20190;-79
2023/04/15 08:17:43;;;;;;;5.50;4.27;;;;;;;;;;5011510;28;20203;-79
2023/04/15 08:20:10;;;;;;;7.80;5.10;;;;;;;;;;5009331;28;20179;-79
2023/04/15 08:22:38;;;;;;;4.70;4.30;;;;;;;;;;5011429;28;20181;-79
2023/04/15 08:25:06;;;;;;;5.90;4.53;;;;;;;;;;5010425;28;20573;-79
2023/04/15 08:27:33;;;;;;;9.73;4.93;;;;;;;;;;5012378;28;20229;-79
2023/04/15 08:30:00;;;;;;;6.40;5.33;;;;;;;;;;5011709;28;20176;-79
2023/04/15 08:32:28;;;;;;;7.57;4.70;;;;;;;;;;5011497;28;20540;-79
2023/04/15 08:34:55;;;;;;;5.57;4.70;;;;;;;;;;5026294;28;20207;-79
2023/04/15 08:37:22;;;;;;;7.23;5.90;;;;;;;;;;5012369;28;20210;-79
2023/04/15 08:39:50;;;;;;;7.70;5.47;;;;;;;;;;5013631;28;20179;-79
2023/04/15 08:42:18;;;;;;;6.77;5.10;;;;;;;;;;5012315;28;20655;-79
2023/04/15 08:44:47;;;;;;;7.27;5.57;;;;;;;;;;5013164;28;20193;-79
2023/04/15 08:47:17;;;;;;;7.13;5.03;;;;;;;;;;5014771;28;20207;-79
2023/04/15 08:49:45;;;;;;;7.90;5.17;;;;;;;;;;5017299;28;20188;-79
2023/04/15 08:52:13;;;;;;;6.40;5.20;;;;;;;;;;5016147;28;20191;-79
2023/04/15 08:54:41;;;;;;;7.20;5.30;;;;;;;;;;5015136;28;20212;-79
2023/04/15 08:57:08;;;;;;;7.53;5.60;;;;;;;;;;5017166;28;20199;-78
2023/04/15 08:59:35;;;;;;;7.83;5.10;;;;;;;;;;5022251;28;20203;-78
2023/04/15 09:02:03;;;;;;;6.23;5.17;;;;;;;;;;5014367;28;20187;-81
2023/04/15 09:04:30;;;;;;;8.03;5.70;;;;;;;;;;5014440;28;20183;-82
2023/04/15 09:06:58;;;;;;;9.93;6.20;;;;;;;;;;5013048;28;20221;-78
2023/04/15 09:09:25;;;;;;;9.33;6.30;;;;;;;;;;5014409;28;20183;-78
2023/04/15 09:11:52;;;;;;;9.27;6.73;;;;;;;;;;5014170;28;20191;-77
2023/04/15 09:14:20;;;;;;;8.77;6.73;;;;;;;;;;5013631;28;20211;-77
2023/04/15 09:17:00;;;;;;;6.77;6.07;;;;;;;;;;5011243;28;20222;-78
2023/04/15 09:19:28;;;;;;;7.47;6.20;;;;;;;;;;5013865;28;20181;-78
2023/04/15 09:21:57;;;;;;;7.77;6.13;;;;;;;;;;5013885;28;20191;-78
2023/04/15 09:24:25;;;;;;;8.30;6.07;;;;;;;;;;5011533;28;20256;-78
2023/04/15 09:26:54;;;;;;;9.27;6.60;;;;;;;;;;5012743;28;20211;-78
2023/04/15 09:29:24;;;;;;;11.50;8.13;;;;;;;;;;5014175;28;20213;-78
2023/04/15 09:31:52;;;;;;;9.30;7.10;;;;;;;;;;5014127;28;20191;-78
2023/04/15 09:34:20;;;;;;;8.30;6.57;;;;;;;;;;5011161;28;20215;-78
2023/04/15 09:36:50;;;;;;;8.40;6.43;;;;;;;;;;5013981;28;20686;-78
2023/04/15 09:39:18;;;;;;;6.53;5.57;;;;;;;;;;5029261;28;20195;-78
2023/04/15 09:41:45;;;;;;;7.33;5.20;;;;;;;;;;5032557;28;20189;-78
2023/04/15 09:44:25;;;;;;;6.93;5.87;;;;;;;;;;5033466;28;20187;-78
2023/04/15 09:46:53;;;;;;;7.40;5.77;;;;;;;;;;5033378;28;20209;-79
2023/04/15 09:49:20;;;;;;;7.17;5.57;;;;;;;;;;5024814;28;20181;-79
2023/04/15 09:51:48;;;;;;;7.57;5.50;;;;;;;;;;5045427;28;20180;-79
2023/04/15 09:54:20;;;;;;;8.43;5.93;;;;;;;;;;5013366;28;20218;-79
2023/04/15 09:56:47;;;;;;;7.20;6.07;;;;;;;;;;5012981;28;20217;-78
2023/04/15 09:59:15;;;;;;;6.67;5.33;;;;;;;;;;5024140;28;20179;-79
2023/04/15 10:01:42;;;;;;;10.27;6.27;;;;;;;;;;5068569;28;20192;-80
2023/04/15 10:04:10;;;;;;;6.20;5.40;;;;;;;;;;5025379;28;20183;-79
2023/04/15 10:06:39;;;;;;;4.87;4.43;;;;;;;;;;5017462;28;20289;-81
2023/04/15 10:09:07;;;;;;;6.27;3.90;;;;;;;;;;5015818;28;20186;-78
2023/04/15 10:11:35;;;;;;;4.97;3.90;;;;;;;;;;5013830;28;20668;-79
2023/04/15 10:14:02;;;;;;;4.70;3.80;;;;;;;;;;5013033;28;20206;-79
2023/04/15 10:16:32;;;;;;;4.00;3.60;;;;;;;;;;5013530;28;20179;-78
2023/04/15 10:19:01;;;;;;;5.67;3.87;;;;;;;;;;5013254;28;20559;-79
2023/04/15 10:21:29;;;;;;;4.73;3.30;;;;;;;;;;5010647;28;20183;-79
2023/04/15 10:23:57;;;;;;;5.07;3.23;;;;;;;;;;5010698;28;20209;-79
2023/04/15 10:26:26;;;;;;;4.20;3.53;;;;;;;;;;5011731;28;20187;-79
2023/04/15 10:28:54;;;;;;;4.13;3.00;;;;;;;;;;4991568;28;20693;-79
2023/04/15 10:31:22;;;;;;;3.83;2.80;;;;;;;;;;5003775;28;20183;-79
2023/04/15 10:33:50;;;;;;;2.97;2.43;;;;;;;;;;5011314;28;20213;-79
2023/04/15 10:36:18;;;;;;;2.53;2.20;;;;;;;;;;5012915;28;20243;-79
2023/04/15 10:38:46;;;;;;;2.63;2.43;;;;;;;;;;5011593;28;20177;-79
2023/04/15 10:41:21;;;;;;;3.90;2.27;;;;;;;;;;5011862;28;20194;-79
2023/04/15 10:43:56;;;;;;;2.60;2.00;;;;;;;;;;5012705;28;20187;-78
2023/04/15 10:46:24;;;;;;;3.60;1.80;;;;;;;;;;5012696;28;20532;-79
2023/04/15 10:48:52;;;;;;;2.40;1.90;;;;;;;;;;5012435;28;20209;-79
2023/04/15 10:51:26;;;;;;;5.43;1.97;;;;;;;;;;5012987;28;20187;-78
2023/04/15 10:53:56;;;;;;;4.73;2.10;;;;;;;;;;5013035;28;20179;-78
2023/04/15 10:56:24;;;;;;;2.67;1.90;;;;;;;;;;5014032;28;20616;-78
2023/04/15 10:58:51;;;;;;;3.27;2.20;;;;;;;;;;5013059;28;20186;-79
2023/04/15 11:01:22;;;;;;;2.40;1.60;;;;;;;;;;5011723;28;20190;-78
2023/04/15 11:03:50;;;;;;;3.23;1.93;;;;;;;;;;5011509;28;20183;-79
2023/04/15 11:06:17;;;;;;;2.80;1.80;;;;;;;;;;5011936;28;20265;-79
2023/04/15 11:09:08;;;;;;;2.80;2.20;;;;;;;;;;5012237;28;20213;-79
2023/04/15 11:12:05;;;;;;;2.13;1.60;;;;;;;;;;5012471;28;20181;-78
2023/04/15 11:14:34;;;;;;;3.03;2.00;;;;;;;;;;5012283;28;20225;-79
2023/04/15 11:17:02;;;;;;;2.73;1.83;;;;;;;;;;5012118;28;20199;-79
2023/04/15 11:19:35;;;;;;;1.90;1.60;;;;;;;;;;5012318;28;20187;-79
2023/04/15 11:22:06;;;;;;;2.00;1.60;;;;;;;;;;5010697;28;20183;-79
2023/04/15 11:24:34;;;;;;;2.43;1.67;;;;;;;;;;5010943;28;20499;-78
2023/04/15 11:27:02;;;;;;;2.33;1.60;;;;;;;;;;5011240;28;20213;-79
2023/04/15 11:29:33;;;;;;;2.67;1.50;;;;;;;;;;5010760;28;20187;-79
2023/04/15 11:32:10;;;;;;;1.70;1.50;;;;;;;;;;5010694;28;20168;-79
2023/04/15 11:34:37;;;;;;;2.30;1.40;;;;;;;;;;5012351;28;20205;-79
2023/04/15 11:37:05;;;;;;;2.30;1.60;;;;;;;;;;5005084;28;20214;-79
2023/04/15 11:39:33;;;;;;;2.50;1.60;;;;;;;;;;5010236;28;20571;-79
2023/04/15 11:42:00;;;;;;;1.90;1.70;;;;;;;;;;5043422;28;20179;-81
2023/04/15 11:44:28;;;;;;;1.80;1.63;;;;;;;;;;5043518;28;20257;-79
2023/04/15 11:46:55;;;;;;;1.60;1.43;;;;;;;;;;5011822;28;20209;-79
2023/04/15 11:49:26;;;;;;;1.70;1.60;;;;;;;;;;5005511;28;20188;-79
2023/04/15 11:51:53;;;;;;;2.60;1.77;;;;;;;;;;5010719;28;20195;-79
2023/04/15 11:54:19;;;;;;;2.07;1.40;;;;;;;;;;5010335;28;20182;-79
2023/04/15 11:56:50;;;;;;;3.67;1.87;;;;;;;;;;5010541;28;20745;-80
2023/04/15 11:59:16;;;;;;;2.83;1.77;;;;;;;;;;5011998;28;20256;-79
2023/04/15 12:01:42;;;;;;;2.97;1.73;;;;;;;;;;5011815;28;20305;-79
2023/04/15 12:04:12;;;;;;;2.23;2.03;;;;;;;;;;5011107;28;20206;-79
2023/04/15 12:06:38;;;;;;;4.00;2.17;;;;;;;;;;5010395;28;20293;-79
2023/04/15 12:09:12;;;;;;;2.97;2.20;;;;;;;;;;5010945;28;20191;-79
2023/04/15 12:11:41;;;;;;;2.57;2.00;;;;;;;;;;4994496;28;20240;-80
2023/04/15 12:14:21;;;;;;;3.40;2.00;;;;;;;;;;5010373;28;20183;-79
2023/04/15 12:16:48;;;;;;;2.27;2.00;;;;;;;;;;5010300;28;20206;-79
2023/04/15 12:19:15;;;;;;;4.40;2.53;;;;;;;;;;5010366;28;20285;-80
2023/04/15 12:21:44;;;;;;;4.87;2.67;;;;;;;;;;5013877;28;20179;-79
2023/04/15 12:24:11;;;;;;;3.17;2.60;;;;;;;;;;5009527;28;20592;-79
2023/04/15 12:26:37;;;;;;;3.03;2.33;;;;;;;;;;5001478;28;20208;-83
2023/04/15 12:29:07;;;;;;;3.20;2.37;;;;;;;;;;5002513;28;20207;-86
2023/04/15 12:31:37;;;;;;;3.80;2.30;;;;;;;;;;5000969;28;20218;-79
2023/04/15 12:34:07;;;;;;;3.03;2.50;;;;;;;;;;5014527;28;20329;-79
2023/04/15 12:36:36;;;;;;;2.87;2.13;;;;;;;;;;5017788;28;20596;-79
2023/04/15 12:39:04;;;;;;;3.20;2.00;;;;;;;;;;5009861;28;20199;-79
2023/04/15 12:41:30;;;;;;;4.57;2.43;;;;;;;;;;5005466;28;20248;-79
2023/04/15 12:43:56;;;;;;;3.63;2.40;;;;;;;;;;5014772;28;20190;-78
2023/04/15 12:46:23;;;;;;;4.30;2.33;;;;;;;;;;5014574;28;20655;-78
2023/04/15 12:48:50;;;;;;;3.20;2.37;;;;;;;;;;5013792;28;20195;-79
2023/04/15 12:51:17;;;;;;;2.50;2.00;;;;;;;;;;5008040;28;20318;-79
2023/04/15 12:53:43;;;;;;;4.03;1.90;;;;;;;;;;5014848;28;20223;-79
2023/04/15 12:56:09;;;;;;;3.03;2.00;;;;;;;;;;5013883;28;20207;-79
2023/04/15 12:58:36;;;;;;;4.37;2.03;;;;;;;;;;5013666;28;20199;-80
2023/04/15 13:01:02;;;;;;;2.13;1.93;;;;;;;;;;5013523;28;20214;-79
2023/04/15 13:03:28;;;;;;;4.03;2.47;;;;;;;;;;4997236;28;20196;-79
2023/04/15 13:05:56;;;;;;;3.07;2.00;;;;;;;;;;5019025;28;20190;-79
2023/04/15 13:08:22;;;;;;;2.20;1.80;;;;;;;;;;5011346;28;20356;-79
2023/04/15 13:10:49;;;;;;;3.97;1.90;;;;;;;;;;5019470;28;20189;-78
2023/04/15 13:13:15;;;;;;;2.00;1.70;;;;;;;;;;5014903;28;20194;-81
2023/04/15 13:15:44;;;;;;;2.70;1.67;;;;;;;;;;5013254;28;20207;-75
2023/04/15 13:18:10;;;;;;;2.63;1.60;;;;;;;;;;5011177;28;20213;-77
2023/04/15 13:20:36;;;;;;;3.10;2.07;;;;;;;;;;5011233;28;20187;-77
2023/04/15 13:23:02;;;;;;;5.13;2.53;;;;;;;;;;5016874;28;20175;-77
2023/04/15 13:25:29;;;;;;;2.30;1.80;;;;;;;;;;5008590;28;20203;-78
2023/04/15 13:27:56;;;;;;;2.13;1.53;;;;;;;;;;5012507;28;20203;-77
2023/04/15 13:30:22;;;;;;;2.83;1.80;;;;;;;;;;5012487;28;20180;-73
2023/04/15 13:32:49;;;;;;;2.27;1.40;;;;;;;;;;5010290;28;20187;-76
2023/04/15 13:35:15;;;;;;;3.43;1.60;;;;;;;;;;5014461;28;20748;-83
2023/04/15 13:37:41;;;;;;;3.47;1.63;;;;;;;;;;5015276;28;20207;-78
2023/04/15 13:40:08;;;;;;;1.97;1.63;;;;;;;;;;5013622;28;20179;-77
2023/04/15 13:42:34;;;;;;;2.00;1.60;;;;;;;;;;5014397;28;20593;-78
2023/04/15 13:45:00;;;;;;;2.83;1.80;;;;;;;;;;5013522;28;20267;-78
2023/04/15 13:47:27;;;;;;;3.00;1.83;;;;;;;;;;5013610;28;20593;-78
2023/04/15 13:49:55;;;;;;;2.30;1.90;;;;;;;;;;4995279;28;20519;-78
2023/04/15 13:52:21;;;;;;;3.40;1.90;;;;;;;;;;5013531;28;20193;-77
2023/04/15 13:54:47;;;;;;;1.80;1.60;;;;;;;;;;5015970;28;20264;-78
2023/04/15 13:57:13;;;;;;;3.90;2.00;;;;;;;;;;5008357;28;20203;-77
2023/04/15 13:59:39;;;;;;;5.33;1.80;;;;;;;;;;5010810;28;20175;-78
2023/04/15 14:02:06;;;;;;;3.03;2.60;;;;;;;;;;5012658;28;20191;-78
2023/04/15 14:04:32;;;;;;;3.07;2.77;;;;;;;;;;5013834;28;20183;-78
2023/04/15 14:06:58;;;;;;;2.90;2.30;;;;;;;;;;5010646;28;20210;-77
2023/04/15 14:09:25;;;;;;;2.93;2.50;;;;;;;;;;5011480;28;20183;-77
2023/04/15 14:11:51;;;;;;;2.93;2.63;;;;;;;;;;5012272;28;20210;-77
2023/04/15 14:14:17;;;;;;;4.00;2.17;;;;;;;;;;5008588;28;20276;-77
2023/04/15 14:16:43;;;;;;;2.53;2.30;;;;;;;;;;5010063;28;20226;-77
2023/04/15 14:19:10;;;;;;;2.20;1.80;;;;;;;;;;4991235;28;20190;-77
2023/04/15 14:21:36;;;;;;;2.13;1.83;;;;;;;;;;5008265;28;20187;-77
2023/04/15 14:24:02;;;;;;;2.00;1.80;;;;;;;;;;5008205;28;20219;-78
2023/04/15 14:26:28;;;;;;;2.93;1.90;;;;;;;;;;5010145;28;20179;-78
2023/04/15 14:28:54;;;;;;;1.77;1.60;;;;;;;;;;5010124;28;20192;-78
2023/04/15 14:31:20;;;;;;;1.83;1.73;;;;;;;;;;5010512;28;20690;-77
2023/04/15 14:33:46;;;;;;;1.70;1.60;;;;;;;;;;5008702;28;20199;-77
2023/04/15 14:36:13;;;;;;;1.90;1.70;;;;;;;;;;5009369;28;20215;-77
2023/04/15 14:38:39;;;;;;;2.47;2.00;;;;;;;;;;5010374;28;20234;-77
2023/04/15 14:41:06;;;;;;;1.83;1.70;;;;;;;;;;5011868;28;20179;-77
2023/04/15 14:43:33;;;;;;;2.13;1.90;;;;;;;;;;5010123;28;20183;-77